Time;durP1;ratioP1;P1;durP2;ratioP2;P2;SDS_P1;SDS_P2;PMS_P1;PMS_P2;Temp;Humidity;BMP_temperature;BMP_pressure;BME280_temperature;BME280_humidity;BME280_pressure;Samples;Min_cycle;Max_cycle;Signal;HPM_P1;HPM_P2
2023/06/25 00:01:55;;;;;;;69.85;9.05;;;;;;;;;;5004775;28;20065;-58
2023/06/25 00:04:21;;;;;;;133.13;14.33;;;;;;;;;;5001863;28;20017;-58
2023/06/25 00:06:46;;;;;;;78.30;10.32;;;;;;;;;;5002481;28;20655;-59
2023/06/25 00:09:12;;;;;;;108.15;12.65;;;;;;;;;;5003914;28;20511;-59
2023/06/25 00:11:37;;;;;;;77.40;10.05;;;;;;;;;;5005700;28;20040;-59
2023/06/25 00:14:03;;;;;;;67.38;9.60;;;;;;;;;;5004325;28;20168;-55
2023/06/25 00:16:29;;;;;;;76.05;9.70;;;;;;;;;;5004265;28;20572;-58
2023/06/25 00:18:54;;;;;;;88.68;10.43;;;;;;;;;;5003086;28;20109;-58
2023/06/25 00:21:19;;;;;;;97.95;12.52;;;;;;;;;;5004505;28;20041;-59
2023/06/25 00:23:44;;;;;;;74.57;10.10;;;;;;;;;;5007654;28;20037;-58
2023/06/25 00:26:10;;;;;;;115.60;12.88;;;;;;;;;;5002346;28;20272;-58
2023/06/25 00:28:35;;;;;;;77.83;10.50;;;;;;;;;;5004158;28;20024;-58
2023/06/25 00:31:00;;;;;;;113.13;23.57;;;;;;;;;;5002121;28;20273;-57
2023/06/25 00:33:25;;;;;;;90.93;15.50;;;;;;;;;;5004389;28;20252;-57
2023/06/25 11:27:41;;;;;;;1073.28;423.83;;;;;;;;;;5062787;27;20973;-57
2023/06/25 11:30:08;;;;;;;822.45;731.67;;;;;;;;;;5066446;28;20383;-56
2023/06/25 11:32:34;;;;;;;931.80;448.90;;;;;;;;;;5007398;27;20630;-57
2023/06/25 11:34:59;;;;;;;791.30;637.40;;;;;;;;;;5007245;28;20590;-55
2023/06/25 11:37:27;;;;;;;1122.57;773.45;;;;;;;;;;5009615;28;20136;-57
2023/06/25 11:39:52;;;;;;;924.88;768.85;;;;;;;;;;5007564;28;20064;-55
2023/06/25 11:42:24;;;;;;;809.00;704.22;;;;;;;;;;5007568;28;20053;-55
2023/06/25 11:45:00;;;;;;;910.10;570.25;;;;;;;;;;5008178;28;20325;-55
2023/06/25 11:47:25;;;;;;;865.97;719.33;;;;;;;;;;5012943;28;20052;-54
2023/06/25 11:49:51;;;;;;;800.97;634.20;;;;;;;;;;5011782;28;20034;-55
2023/06/25 11:52:17;;;;;;;857.63;771.45;;;;;;;;;;5010963;28;20064;-58
2023/06/25 11:54:42;;;;;;;935.43;541.40;;;;;;;;;;5015737;28;20521;-57
2023/06/25 11:57:07;;;;;;;738.53;622.73;;;;;;;;;;5004232;28;20046;-56
2023/06/25 11:59:32;;;;;;;826.63;678.75;;;;;;;;;;5009420;28;20041;-55
2023/06/25 12:01:58;;;;;;;802.00;596.80;;;;;;;;;;5007668;28;20041;-55
2023/06/25 12:04:23;;;;;;;883.57;640.63;;;;;;;;;;5008892;28;20026;-58
2023/06/25 12:06:48;;;;;;;850.67;749.58;;;;;;;;;;5008456;28;20285;-56
2023/06/25 12:09:14;;;;;;;848.10;600.53;;;;;;;;;;5006966;28;20022;-55
2023/06/25 12:11:39;;;;;;;415.63;262.70;;;;;;;;;;5003361;28;20378;-56
2023/06/25 12:14:04;;;;;;;765.70;673.43;;;;;;;;;;5007346;28;20059;-54
2023/06/25 12:16:29;;;;;;;798.10;490.90;;;;;;;;;;5006443;28;20769;-56
2023/06/25 12:18:56;;;;;;;689.97;385.97;;;;;;;;;;5005127;28;20565;-57
2023/06/25 12:21:21;;;;;;;782.13;596.25;;;;;;;;;;5005335;28;20046;-59
2023/06/25 12:23:47;;;;;;;796.00;443.83;;;;;;;;;;5006211;28;20280;-55
2023/06/25 12:26:12;;;;;;;578.67;517.83;;;;;;;;;;5008959;28;20046;-57
2023/06/25 12:28:37;;;;;;;794.07;708.93;;;;;;;;;;5011656;28;20518;-58
2023/06/25 12:31:02;;;;;;;623.97;393.17;;;;;;;;;;5007066;28;20034;-58
2023/06/25 12:33:27;;;;;;;768.23;588.83;;;;;;;;;;5008542;28;20262;-56
2023/06/25 12:35:53;;;;;;;735.17;654.07;;;;;;;;;;5003302;28;20277;-56
2023/06/25 12:38:19;;;;;;;701.40;503.00;;;;;;;;;;5004412;28;20411;-55
2023/06/25 12:40:46;;;;;;;722.08;592.75;;;;;;;;;;4995822;28;20041;-56
2023/06/25 12:43:11;;;;;;;748.92;650.50;;;;;;;;;;4993204;28;20112;-56
2023/06/25 12:45:36;;;;;;;695.53;343.77;;;;;;;;;;4994320;28;20049;-58
2023/06/25 12:48:01;;;;;;;594.47;346.10;;;;;;;;;;4992626;28;20262;-58
2023/06/25 12:50:27;;;;;;;652.07;556.57;;;;;;;;;;4994496;28;20092;-53
2023/06/25 12:52:52;;;;;;;757.87;580.90;;;;;;;;;;4992552;28;20023;-56
2023/06/25 12:55:17;;;;;;;638.10;401.17;;;;;;;;;;4992445;28;20025;-53
2023/06/25 12:57:42;;;;;;;626.20;477.67;;;;;;;;;;4993373;28;20022;-53
2023/06/25 13:00:08;;;;;;;780.57;605.00;;;;;;;;;;4994371;28;20284;-55
2023/06/25 13:02:33;;;;;;;587.88;469.48;;;;;;;;;;4991980;28;20281;-58
2023/06/25 13:04:59;;;;;;;695.13;589.63;;;;;;;;;;4994053;28;20553;-57
2023/06/25 13:40:56;;;;;;;707.10;515.83;;;;;;;;;;5021422;28;20409;-56
2023/06/25 13:43:22;;;;;;;608.40;466.43;;;;;;;;;;5000344;28;20040;-54
2023/06/25 13:45:47;;;;;;;536.88;374.92;;;;;;;;;;5004052;28;20760;-54
2023/06/25 13:48:12;;;;;;;602.33;534.40;;;;;;;;;;5017573;28;20525;-56
2023/06/25 13:50:43;;;;;;;737.90;662.78;;;;;;;;;;5017078;28;20458;-55
2023/06/25 13:53:10;;;;;;;602.20;507.15;;;;;;;;;;5015982;28;20052;-55
2023/06/25 13:55:35;;;;;;;381.30;192.13;;;;;;;;;;5014570;28;20483;-55
2023/06/25 13:58:00;;;;;;;520.03;363.17;;;;;;;;;;5017181;28;20271;-53
2023/06/25 14:00:26;;;;;;;607.33;531.20;;;;;;;;;;5019003;28;20285;-54
2023/06/25 14:02:51;;;;;;;520.17;310.17;;;;;;;;;;5017832;28;20059;-55
2023/06/25 14:05:16;;;;;;;306.10;129.20;;;;;;;;;;5016149;28;20288;-52
2023/06/25 14:07:41;;;;;;;689.07;505.53;;;;;;;;;;5018306;28;20856;-56
2023/06/25 14:10:07;;;;;;;601.03;514.50;;;;;;;;;;5018341;28;20267;-54
2023/06/25 14:12:32;;;;;;;558.08;474.42;;;;;;;;;;5018822;28;20824;-55
2023/06/25 14:14:57;;;;;;;450.63;317.10;;;;;;;;;;5023778;28;20107;-57
2023/06/25 14:17:23;;;;;;;530.85;422.48;;;;;;;;;;5018370;28;20290;-55
2023/06/25 14:19:48;;;;;;;501.17;405.07;;;;;;;;;;5018546;28;20022;-55
2023/06/25 14:22:13;;;;;;;275.08;121.30;;;;;;;;;;5017878;28;20300;-55
2023/06/25 14:24:38;;;;;;;318.53;265.17;;;;;;;;;;5016821;28;20646;-56
2023/06/25 14:27:04;;;;;;;356.33;224.80;;;;;;;;;;5015371;28;20144;-56
2023/06/25 14:29:32;;;;;;;595.25;494.67;;;;;;;;;;5017845;28;20272;-56
2023/06/25 14:31:57;;;;;;;247.50;151.38;;;;;;;;;;5014981;28;20415;-57
2023/06/25 14:34:22;;;;;;;180.73;62.60;;;;;;;;;;5019384;28;20029;-58
2023/06/25 14:36:47;;;;;;;369.93;246.53;;;;;;;;;;5014860;28;20273;-58
2023/06/25 14:39:13;;;;;;;425.83;272.93;;;;;;;;;;5016940;28;20661;-56
2023/06/25 14:41:38;;;;;;;922.37;422.50;;;;;;;;;;5017206;28;20034;-56
2023/06/25 14:44:03;;;;;;;600.13;465.73;;;;;;;;;;5017445;28;20283;-54
2023/06/25 14:46:29;;;;;;;487.83;380.80;;;;;;;;;;5016642;28;20033;-57
2023/06/25 14:48:54;;;;;;;728.72;655.42;;;;;;;;;;5019114;28;20280;-57
2023/06/25 14:51:19;;;;;;;690.17;492.90;;;;;;;;;;5008464;28;20490;-55
2023/06/25 14:53:45;;;;;;;216.02;97.82;;;;;;;;;;5003771;28;20025;-56
2023/06/25 14:56:10;;;;;;;594.63;397.48;;;;;;;;;;5002140;28;20360;-56
2023/06/25 14:58:35;;;;;;;756.97;684.93;;;;;;;;;;5004165;28;20061;-58
2023/06/25 15:01:01;;;;;;;698.00;625.50;;;;;;;;;;5003138;28;20322;-57
2023/06/25 15:03:26;;;;;;;670.90;541.78;;;;;;;;;;5004109;28;20886;-58
2023/06/25 15:05:51;;;;;;;555.33;305.27;;;;;;;;;;5004010;28;20455;-58
2023/06/25 15:08:16;;;;;;;465.07;320.90;;;;;;;;;;5004618;28;20009;-59
2023/06/25 15:10:42;;;;;;;704.50;634.10;;;;;;;;;;5003867;28;20301;-59
2023/06/25 15:13:07;;;;;;;665.95;523.10;;;;;;;;;;5006359;28;20111;-58
2023/06/25 15:15:32;;;;;;;663.03;525.80;;;;;;;;;;5003105;28;20064;-59
2023/06/25 15:17:58;;;;;;;687.93;558.17;;;;;;;;;;5003419;28;20354;-58
2023/06/25 15:20:23;;;;;;;598.50;534.63;;;;;;;;;;5004836;28;20484;-58
2023/06/25 15:22:48;;;;;;;626.83;509.37;;;;;;;;;;5005943;28;20072;-58
2023/06/25 15:25:13;;;;;;;626.20;498.13;;;;;;;;;;5001337;28;20353;-59
2023/06/25 15:27:38;;;;;;;833.60;604.27;;;;;;;;;;5005455;28;20030;-59
2023/06/25 15:30:04;;;;;;;426.03;301.80;;;;;;;;;;5004444;28;20308;-58
2023/06/25 15:32:29;;;;;;;663.92;337.77;;;;;;;;;;5003206;28;20073;-58
2023/06/25 15:34:54;;;;;;;374.67;235.57;;;;;;;;;;5004391;28;20026;-59
2023/06/25 15:37:20;;;;;;;684.97;485.77;;;;;;;;;;5003186;28;20041;-59
2023/06/25 15:39:45;;;;;;;359.27;196.10;;;;;;;;;;5004838;28;20288;-59
2023/06/25 15:42:10;;;;;;;473.23;232.17;;;;;;;;;;5003323;28;20088;-59
2023/06/25 15:44:35;;;;;;;328.33;255.40;;;;;;;;;;5005455;28;20097;-56
2023/06/25 15:47:01;;;;;;;682.50;607.20;;;;;;;;;;5003553;28;20284;-57
2023/06/25 15:49:26;;;;;;;519.15;393.85;;;;;;;;;;5004757;28;20420;-59
2023/06/25 15:51:51;;;;;;;566.60;450.43;;;;;;;;;;5003618;28;20046;-59
2023/06/25 15:54:16;;;;;;;325.23;131.45;;;;;;;;;;5000972;28;20379;-58
2023/06/25 15:56:45;;;;;;;675.70;583.50;;;;;;;;;;5003577;28;20030;-59
2023/06/25 15:59:10;;;;;;;741.63;663.65;;;;;;;;;;5001743;28;20413;-59
2023/06/25 16:01:35;;;;;;;502.57;448.73;;;;;;;;;;5002968;28;20443;-59
2023/06/25 16:04:01;;;;;;;552.57;469.23;;;;;;;;;;4999682;28;20293;-59
2023/06/25 16:06:26;;;;;;;731.20;655.60;;;;;;;;;;5002450;28;20131;-57
2023/06/25 16:08:51;;;;;;;553.57;352.47;;;;;;;;;;5002743;28;20017;-60
2023/06/25 16:11:16;;;;;;;221.50;89.90;;;;;;;;;;4998719;28;20272;-59
2023/06/25 16:13:42;;;;;;;570.38;479.80;;;;;;;;;;5003647;28;20533;-59
2023/06/25 16:16:07;;;;;;;494.47;295.40;;;;;;;;;;5000034;28;20034;-60
2023/06/25 16:18:32;;;;;;;689.93;572.80;;;;;;;;;;5002645;28;20013;-59
2023/06/25 16:20:57;;;;;;;659.80;568.57;;;;;;;;;;5004059;28;20071;-59
2023/06/25 16:23:23;;;;;;;441.27;298.77;;;;;;;;;;5000194;28;20265;-58
2023/06/25 16:25:48;;;;;;;670.60;585.70;;;;;;;;;;5001340;28;20303;-57
2023/06/25 16:28:13;;;;;;;744.15;665.00;;;;;;;;;;5000783;28;20530;-56
2023/06/25 16:30:38;;;;;;;571.07;464.50;;;;;;;;;;5002162;28;20339;-57
2023/06/25 16:33:03;;;;;;;439.03;286.20;;;;;;;;;;5001174;28;20029;-56
2023/06/25 16:35:29;;;;;;;477.27;328.27;;;;;;;;;;5001826;28;20363;-57
2023/06/25 16:37:56;;;;;;;663.63;593.93;;;;;;;;;;5002689;28;20030;-57
2023/06/25 16:40:21;;;;;;;569.40;489.70;;;;;;;;;;4998982;28;20112;-60
2023/06/25 16:42:46;;;;;;;747.00;670.38;;;;;;;;;;5002546;28;20052;-57
2023/06/25 16:45:12;;;;;;;755.47;676.87;;;;;;;;;;4999363;28;20355;-58
2023/06/25 16:47:37;;;;;;;659.60;587.13;;;;;;;;;;5001750;28;20527;-58
2023/06/25 16:50:02;;;;;;;661.43;556.73;;;;;;;;;;5000686;28;20618;-57
2023/06/25 16:52:27;;;;;;;702.47;633.28;;;;;;;;;;5002212;28;20091;-58
2023/06/25 16:54:53;;;;;;;706.90;631.80;;;;;;;;;;5001908;28;20013;-57
2023/06/25 16:57:18;;;;;;;655.90;568.50;;;;;;;;;;4998170;28;20106;-56
2023/06/25 16:59:43;;;;;;;746.50;667.23;;;;;;;;;;5002790;28;20026;-54
2023/06/25 17:02:09;;;;;;;763.03;685.67;;;;;;;;;;5003478;28;20451;-56
2023/06/25 17:04:35;;;;;;;732.60;654.65;;;;;;;;;;5003232;28;20315;-52
2023/06/25 17:07:00;;;;;;;638.95;569.45;;;;;;;;;;5000979;28;20095;-56
2023/06/25 17:09:25;;;;;;;676.53;612.28;;;;;;;;;;5003755;28;20014;-56
2023/06/25 17:11:51;;;;;;;662.90;573.07;;;;;;;;;;5002782;28;20049;-57
2023/06/25 17:14:16;;;;;;;421.20;327.87;;;;;;;;;;5001064;28;20275;-57
2023/06/25 17:16:41;;;;;;;698.20;626.83;;;;;;;;;;5000770;28;20080;-55
2023/06/25 17:19:06;;;;;;;406.00;287.33;;;;;;;;;;5001087;28;20105;-57
2023/06/25 17:21:32;;;;;;;656.80;585.10;;;;;;;;;;5001390;28;20266;-55
2023/06/25 17:23:57;;;;;;;682.50;610.43;;;;;;;;;;5001224;28;20032;-58
2023/06/25 17:26:22;;;;;;;734.20;659.03;;;;;;;;;;5000876;28;20029;-57
2023/06/25 17:28:47;;;;;;;703.45;629.55;;;;;;;;;;5002099;28;20567;-58
2023/06/25 17:31:13;;;;;;;688.10;618.40;;;;;;;;;;5000685;28;20026;-55
2023/06/25 17:33:38;;;;;;;561.47;492.00;;;;;;;;;;5003198;28;20049;-56
2023/06/25 17:36:05;;;;;;;687.77;616.07;;;;;;;;;;4999081;28;20280;-55
2023/06/25 17:38:30;;;;;;;688.47;624.45;;;;;;;;;;5002549;28;20257;-55
2023/06/25 17:40:55;;;;;;;687.00;620.33;;;;;;;;;;5000077;28;20037;-54
2023/06/25 17:43:22;;;;;;;680.30;606.93;;;;;;;;;;4999840;28;20036;-55
2023/06/25 17:45:47;;;;;;;707.03;633.05;;;;;;;;;;4999558;28;20048;-59
2023/06/25 17:48:13;;;;;;;695.07;623.87;;;;;;;;;;5002912;28;20379;-57
2023/06/25 17:50:38;;;;;;;451.17;264.70;;;;;;;;;;5000655;28;20156;-55
2023/06/25 17:53:03;;;;;;;569.73;492.23;;;;;;;;;;5000524;28;20595;-59
2023/06/25 17:55:29;;;;;;;629.67;564.87;;;;;;;;;;4999099;28;20164;-58
2023/06/25 17:57:55;;;;;;;636.03;570.92;;;;;;;;;;5002651;28;20026;-57
2023/06/25 18:00:21;;;;;;;682.70;612.80;;;;;;;;;;4999148;28;20033;-57
2023/06/25 18:02:46;;;;;;;759.13;686.03;;;;;;;;;;5000315;28;20245;-55
2023/06/25 18:05:11;;;;;;;756.60;679.33;;;;;;;;;;4998588;28;20505;-55
2023/06/25 18:07:36;;;;;;;578.90;504.63;;;;;;;;;;5004918;28;20014;-57
2023/06/25 18:10:02;;;;;;;464.77;360.80;;;;;;;;;;5000867;28;20041;-56
2023/06/25 18:12:28;;;;;;;713.30;644.00;;;;;;;;;;4999235;28;20607;-57
2023/06/25 18:14:53;;;;;;;672.65;603.40;;;;;;;;;;4999792;28;20379;-58
2023/06/25 18:17:18;;;;;;;590.28;511.65;;;;;;;;;;4998970;28;20037;-57
2023/06/25 18:19:44;;;;;;;553.27;493.93;;;;;;;;;;5002836;28;20018;-58
2023/06/25 18:22:09;;;;;;;704.47;638.77;;;;;;;;;;5000546;28;20088;-58
2023/06/25 18:24:34;;;;;;;763.07;685.03;;;;;;;;;;4999979;28;20268;-55
2023/06/25 18:26:59;;;;;;;729.17;658.03;;;;;;;;;;5004378;28;20076;-56
2023/06/25 18:29:25;;;;;;;716.40;645.73;;;;;;;;;;5003658;28;20030;-58
2023/06/25 18:31:50;;;;;;;687.50;623.07;;;;;;;;;;5004509;28;20279;-57
2023/06/25 18:34:15;;;;;;;701.50;630.05;;;;;;;;;;5004986;28;20068;-59
2023/06/25 18:36:41;;;;;;;696.03;627.55;;;;;;;;;;5002808;28;20108;-57
2023/06/25 18:39:09;;;;;;;663.92;599.65;;;;;;;;;;5005798;28;20033;-57
2023/06/25 18:41:34;;;;;;;700.90;633.80;;;;;;;;;;5005541;28;20794;-57
2023/06/25 18:44:00;;;;;;;749.70;680.70;;;;;;;;;;5006805;28;20148;-57
2023/06/25 18:46:25;;;;;;;734.63;659.28;;;;;;;;;;5002643;28;20296;-58
2023/06/25 18:48:50;;;;;;;821.27;742.73;;;;;;;;;;5005603;28;20080;-57
2023/06/25 18:51:16;;;;;;;793.70;714.42;;;;;;;;;;5003457;28;20336;-58
2023/06/25 18:53:41;;;;;;;692.10;627.37;;;;;;;;;;5006193;28;20026;-58
2023/06/25 18:56:06;;;;;;;770.90;698.20;;;;;;;;;;5003540;28;20316;-59
2023/06/25 18:58:31;;;;;;;662.70;595.50;;;;;;;;;;5003449;28;20265;-59
2023/06/25 19:00:57;;;;;;;782.47;708.13;;;;;;;;;;5005780;28;20513;-59
2023/06/25 19:03:22;;;;;;;764.43;686.00;;;;;;;;;;5005811;28;20330;-55
2023/06/25 19:05:47;;;;;;;818.47;739.33;;;;;;;;;;5004569;28;20038;-58
2023/06/25 19:08:12;;;;;;;808.17;730.83;;;;;;;;;;5005164;28;20029;-57
2023/06/25 19:10:38;;;;;;;772.37;695.53;;;;;;;;;;5004260;28;20590;-54
2023/06/25 19:13:03;;;;;;;762.08;691.65;;;;;;;;;;5003974;28;20263;-56
2023/06/25 19:15:28;;;;;;;796.40;714.70;;;;;;;;;;5002441;28;20042;-58
2023/06/25 19:17:54;;;;;;;718.33;647.50;;;;;;;;;;5003358;28;20128;-56
2023/06/25 19:20:19;;;;;;;775.37;698.53;;;;;;;;;;5002655;28;20025;-58
2023/06/25 19:22:44;;;;;;;707.00;638.53;;;;;;;;;;5004018;28;20263;-57
2023/06/25 19:25:09;;;;;;;765.92;690.63;;;;;;;;;;5003104;28;20280;-56
2023/06/25 19:27:34;;;;;;;707.93;641.07;;;;;;;;;;5002825;28;20078;-57
2023/06/25 19:30:00;;;;;;;718.70;647.80;;;;;;;;;;5003469;28;20029;-58
2023/06/25 19:32:25;;;;;;;704.30;631.83;;;;;;;;;;5002648;28;20456;-57
2023/06/25 19:34:50;;;;;;;657.47;588.37;;;;;;;;;;5004459;28;20733;-59
2023/06/25 19:37:16;;;;;;;651.63;581.42;;;;;;;;;;5002709;28;20311;-59
2023/06/25 19:39:41;;;;;;;510.42;439.17;;;;;;;;;;5003647;28;20017;-56
2023/06/25 19:42:07;;;;;;;418.65;363.52;;;;;;;;;;5003296;28;20037;-56
2023/06/25 19:44:32;;;;;;;413.52;319.08;;;;;;;;;;5003216;28;21612;-56
2023/06/25 19:46:57;;;;;;;239.47;146.10;;;;;;;;;;5002848;28;20041;-58
2023/06/25 19:49:23;;;;;;;320.83;206.85;;;;;;;;;;5002640;28;20792;-58
2023/06/25 19:51:48;;;;;;;222.77;149.80;;;;;;;;;;5003430;28;20037;-58
2023/06/25 19:54:13;;;;;;;317.17;269.00;;;;;;;;;;5003379;28;20272;-55
2023/06/25 19:56:38;;;;;;;355.77;271.35;;;;;;;;;;5002019;28;20037;-56
2023/06/25 19:59:04;;;;;;;134.97;53.63;;;;;;;;;;5002903;28;20018;-58
2023/06/25 20:01:29;;;;;;;131.40;30.63;;;;;;;;;;4999838;28;20264;-58
2023/06/25 20:03:54;;;;;;;202.60;140.17;;;;;;;;;;5003350;28;20291;-57
2023/06/25 20:06:21;;;;;;;95.03;19.17;;;;;;;;;;5000761;28;20446;-60
2023/06/25 20:08:46;;;;;;;152.07;79.50;;;;;;;;;;5001882;28;20017;-56
2023/06/25 20:11:11;;;;;;;56.58;14.77;;;;;;;;;;5003344;28;20041;-57
2023/06/25 20:13:37;;;;;;;181.50;124.70;;;;;;;;;;5002005;28;20025;-56
2023/06/25 20:16:02;;;;;;;101.38;21.98;;;;;;;;;;5001084;28;20536;-57
2023/06/25 20:18:28;;;;;;;125.97;29.20;;;;;;;;;;5001437;28;20480;-57
2023/06/25 20:20:53;;;;;;;49.77;8.17;;;;;;;;;;5002608;28;20049;-56
2023/06/25 20:23:18;;;;;;;76.75;10.07;;;;;;;;;;5001948;28;20029;-56
2023/06/25 20:25:43;;;;;;;54.97;10.13;;;;;;;;;;5002361;28;20034;-55
2023/06/25 20:28:09;;;;;;;51.87;10.90;;;;;;;;;;5003809;28;20502;-55
2023/06/25 20:30:34;;;;;;;115.03;12.83;;;;;;;;;;5003190;28;20358;-57
2023/06/25 20:33:01;;;;;;;57.17;10.20;;;;;;;;;;5003765;28;20273;-56
2023/06/25 20:35:27;;;;;;;101.10;11.38;;;;;;;;;;5000814;28;20388;-59
2023/06/25 20:37:52;;;;;;;64.70;9.03;;;;;;;;;;5002673;28;20700;-58
2023/06/25 20:40:17;;;;;;;40.47;7.37;;;;;;;;;;5002174;28;20472;-58
2023/06/25 20:42:42;;;;;;;46.67;7.83;;;;;;;;;;5003073;28;20476;-58
2023/06/25 20:45:08;;;;;;;61.30;8.67;;;;;;;;;;5001086;28;20272;-58
2023/06/25 20:47:33;;;;;;;103.53;11.98;;;;;;;;;;4998495;28;20318;-58
2023/06/25 20:49:59;;;;;;;54.35;8.55;;;;;;;;;;5004351;28;20083;-58
2023/06/25 20:52:24;;;;;;;123.15;13.07;;;;;;;;;;5001198;28;20030;-57
2023/06/25 20:54:51;;;;;;;69.27;9.53;;;;;;;;;;5001785;28;20399;-58
2023/06/25 20:57:16;;;;;;;50.05;8.07;;;;;;;;;;5001540;28;20621;-58
2023/06/25 20:59:41;;;;;;;56.67;8.82;;;;;;;;;;5001498;28;20036;-59
2023/06/25 21:02:07;;;;;;;58.10;9.17;;;;;;;;;;5001281;28;20103;-56
2023/06/25 21:04:32;;;;;;;94.35;11.77;;;;;;;;;;5000927;28;20021;-57
2023/06/25 21:06:57;;;;;;;70.17;10.07;;;;;;;;;;4999327;28;20030;-57
2023/06/25 21:09:22;;;;;;;88.53;11.63;;;;;;;;;;5001912;28;20661;-59
2023/06/25 21:11:48;;;;;;;67.47;9.45;;;;;;;;;;5001747;28;20030;-54
2023/06/25 21:14:13;;;;;;;54.35;8.77;;;;;;;;;;5002146;28;20026;-57
2023/06/25 21:16:38;;;;;;;55.40;8.57;;;;;;;;;;4999362;28;20042;-55
2023/06/25 21:19:04;;;;;;;50.33;7.97;;;;;;;;;;5002943;28;20784;-58
2023/06/25 21:21:29;;;;;;;84.78;10.82;;;;;;;;;;5001082;28;20261;-58
2023/06/25 21:23:54;;;;;;;47.43;8.57;;;;;;;;;;5004294;28;20040;-55
2023/06/25 21:26:20;;;;;;;58.38;8.80;;;;;;;;;;4998670;28;20283;-56
2023/06/25 21:28:46;;;;;;;50.53;8.48;;;;;;;;;;5001585;28;20101;-55
2023/06/25 21:31:11;;;;;;;44.30;7.80;;;;;;;;;;5000054;28;20422;-58
2023/06/25 21:33:36;;;;;;;108.23;12.60;;;;;;;;;;4999862;28;20418;-56
2023/06/25 21:36:01;;;;;;;72.72;9.77;;;;;;;;;;4999090;28;20295;-57
2023/06/25 21:38:26;;;;;;;92.97;11.87;;;;;;;;;;5000054;28;20021;-57
2023/06/25 21:40:52;;;;;;;58.10;8.80;;;;;;;;;;4999550;28;20288;-59
2023/06/25 21:43:17;;;;;;;57.70;8.57;;;;;;;;;;5000248;28;20263;-55
2023/06/25 21:45:44;;;;;;;52.93;8.33;;;;;;;;;;4997922;28;20288;-57
2023/06/25 21:48:09;;;;;;;53.28;8.68;;;;;;;;;;5000376;28;20300;-55
2023/06/25 21:50:34;;;;;;;91.28;11.02;;;;;;;;;;5000794;28;20204;-56
2023/06/25 21:53:00;;;;;;;59.93;8.73;;;;;;;;;;5001117;28;20218;-55
2023/06/25 21:55:25;;;;;;;133.47;14.37;;;;;;;;;;4997749;28;20392;-55
2023/06/25 21:57:51;;;;;;;61.33;9.07;;;;;;;;;;5001190;28;20670;-54
2023/06/25 22:00:16;;;;;;;38.28;7.60;;;;;;;;;;5001950;28;20500;-56
2023/06/25 22:02:42;;;;;;;57.65;8.70;;;;;;;;;;5004088;28;20021;-54
2023/06/25 22:05:07;;;;;;;48.42;8.35;;;;;;;;;;5004028;28;20470;-56
2023/06/25 22:07:33;;;;;;;86.50;9.95;;;;;;;;;;5003437;28;20369;-56
2023/06/25 22:09:58;;;;;;;59.97;8.73;;;;;;;;;;5006016;28;20034;-56
2023/06/25 22:12:24;;;;;;;70.63;9.52;;;;;;;;;;5002162;28;20038;-56
2023/06/25 22:14:49;;;;;;;68.68;9.32;;;;;;;;;;5007176;28;20034;-56
